createdAt,value
2023-03-29T00:01:36.936Z,10.45
2023-03-29T00:04:06.614Z,10.47
2023-03-29T00:06:34.651Z,10.48
2023-03-29T00:09:05.539Z,10.49
2023-03-29T00:11:33.616Z,10.49
2023-03-29T00:14:01.790Z,10.52
2023-03-29T00:16:29.335Z,10.52
2023-03-29T00:18:57.410Z,10.55
2023-03-29T00:21:28.643Z,10.58
2023-03-29T00:23:57.912Z,10.62
2023-03-29T00:26:26.052Z,10.65
2023-03-29T00:28:53.492Z,10.68
2023-03-29T00:31:21.335Z,10.71
2023-03-29T00:33:52.579Z,10.76
2023-03-29T00:36:21.156Z,10.81
2023-03-29T00:38:48.752Z,10.86
2023-03-29T00:41:16.550Z,10.90
2023-03-29T00:44:02.576Z,10.97
2023-03-29T00:46:31.978Z,10.99
2023-03-29T00:49:13.841Z,11.04
2023-03-29T00:51:42.785Z,11.08
2023-03-29T00:54:19.095Z,11.13
2023-03-29T00:56:51.553Z,11.19
2023-03-29T00:59:28.788Z,11.24
2023-03-29T01:02:03.737Z,11.26
2023-03-29T01:04:42.879Z,11.31
2023-03-29T01:07:21.556Z,11.35
2023-03-29T01:10:01.706Z,11.38
2023-03-29T01:12:38.190Z,11.43
2023-03-29T01:15:26.655Z,11.46
2023-03-29T01:17:55.863Z,11.47
2023-03-29T01:21:15.788Z,11.52
2023-03-29T01:24:07.219Z,11.48
2023-03-29T01:26:56.245Z,11.48
2023-03-29T01:29:36.912Z,11.48
2023-03-29T01:32:40.497Z,11.49
2023-03-29T01:35:21.536Z,11.49
2023-03-29T01:38:13.648Z,11.51
2023-03-29T01:40:42.685Z,11.52
2023-03-29T01:43:33.241Z,11.54
2023-03-29T01:46:28.348Z,11.55
2023-03-29T01:49:32.699Z,11.57
2023-03-29T01:52:10.294Z,11.56
2023-03-29T01:54:51.423Z,11.59
2023-03-29T01:57:20.360Z,11.63
2023-03-29T02:00:00.595Z,11.66
2023-03-29T02:02:31.150Z,11.67
2023-03-29T02:05:05.595Z,11.70
2023-03-29T02:07:37.492Z,11.73
2023-03-29T02:10:08.811Z,11.75
2023-03-29T02:12:37.449Z,11.77
2023-03-29T02:15:19.091Z,11.77
2023-03-29T02:17:49.515Z,11.79
2023-03-29T02:20:34.056Z,11.79
2023-03-29T02:23:17.019Z,11.81
2023-03-29T02:25:46.856Z,11.83
2023-03-29T02:28:14.742Z,11.87
2023-03-29T02:31:03.630Z,11.90
2023-03-29T02:33:49.324Z,11.91
2023-03-29T02:36:30.824Z,11.92
2023-03-29T02:39:04.215Z,11.95
2023-03-29T02:41:32.877Z,11.97
2023-03-29T02:44:03.141Z,12.00
2023-03-29T02:46:31.475Z,12.04
2023-03-29T02:49:00.500Z,12.08
2023-03-29T02:51:34.560Z,12.09
2023-03-29T02:54:13.018Z,12.12
2023-03-29T02:56:45.782Z,12.13
2023-03-29T02:59:14.388Z,12.13
2023-03-29T03:01:43.050Z,12.16
2023-03-29T03:04:11.448Z,12.17
2023-03-29T03:06:39.268Z,12.19
2023-03-29T03:09:08.103Z,12.21
2023-03-29T03:11:35.708Z,12.23
2023-03-29T03:14:07.576Z,12.24
2023-03-29T03:16:35.174Z,12.25
2023-03-29T03:19:03.065Z,12.27
2023-03-29T03:21:30.962Z,12.28
2023-03-29T03:23:58.228Z,12.29
2023-03-29T03:26:25.468Z,12.30
2023-03-29T03:28:52.738Z,12.32
2023-03-29T03:31:21.703Z,12.35
2023-03-29T03:33:49.102Z,12.37
2023-03-29T03:36:16.263Z,12.38
2023-03-29T03:38:44.117Z,12.42
2023-03-29T03:41:11.580Z,12.43
2023-03-29T03:43:41.603Z,12.44
2023-03-29T03:46:09.562Z,12.47
2023-03-29T03:48:37.485Z,12.48
2023-03-29T03:51:05.200Z,12.52
2023-03-29T03:53:32.576Z,12.54
2023-03-29T03:56:02.410Z,12.59
2023-03-29T03:58:29.842Z,12.60
2023-03-29T04:00:56.987Z,12.62
2023-03-29T04:03:24.292Z,12.63
2023-03-29T04:05:53.413Z,12.64
2023-03-29T04:08:22.757Z,12.67
2023-03-29T04:10:57.906Z,12.67
2023-03-29T04:13:27.746Z,12.67
2023-03-29T04:16:02.046Z,12.71
2023-03-29T04:18:29.806Z,13.10
2023-03-29T04:20:57.602Z,13.16
2023-03-29T04:23:25.044Z,13.06
2023-03-29T04:25:56.806Z,12.97
2023-03-29T04:28:24.572Z,12.95
2023-03-29T04:30:52.347Z,12.95
2023-03-29T04:33:19.614Z,12.95
2023-03-29T04:35:47.132Z,12.96
2023-03-29T04:38:14.332Z,12.97
2023-03-29T04:40:42.289Z,12.97
2023-03-29T04:43:09.786Z,12.99
2023-03-29T04:45:37.073Z,13.01
2023-03-29T04:48:06.311Z,13.02
2023-03-29T04:50:37.071Z,13.05
2023-03-29T04:53:04.598Z,13.04
2023-03-29T04:55:33.445Z,13.06
2023-03-29T04:58:00.610Z,13.06
2023-03-29T05:00:28.784Z,13.07
2023-03-29T05:02:58.321Z,13.09
2023-03-29T05:05:27.337Z,13.09
2023-03-29T05:07:55.663Z,13.11
2023-03-29T05:10:28.605Z,13.11
2023-03-29T05:12:57.250Z,13.12
2023-03-29T05:15:24.739Z,13.13
2023-03-29T05:17:52.148Z,13.14
2023-03-29T05:20:19.437Z,13.16
2023-03-29T05:22:47.448Z,13.17
2023-03-29T05:25:19.830Z,13.18
2023-03-29T05:27:47.002Z,13.18
2023-03-29T05:30:15.958Z,13.19
2023-03-29T05:32:43.746Z,13.21
2023-03-29T05:35:11.989Z,13.23
2023-03-29T05:37:42.417Z,13.22
2023-03-29T05:40:10.433Z,13.23
2023-03-29T05:42:38.804Z,13.25
2023-03-29T05:45:07.088Z,13.27
2023-03-29T05:47:34.283Z,13.29
2023-03-29T05:50:01.685Z,13.32
2023-03-29T05:52:28.841Z,13.34
2023-03-29T05:54:57.069Z,13.35
2023-03-29T05:57:24.774Z,13.37
2023-03-29T05:59:52.408Z,13.38
2023-03-29T06:02:19.953Z,13.41
2023-03-29T06:04:47.592Z,13.43
2023-03-29T06:07:14.778Z,13.46
2023-03-29T06:09:41.610Z,13.49
2023-03-29T06:12:08.947Z,13.51
2023-03-29T06:14:42.381Z,13.56
2023-03-29T06:17:10.837Z,13.59
2023-03-29T06:19:38.526Z,13.60
2023-03-29T06:22:06.284Z,13.65
2023-03-29T06:24:39.935Z,13.69
2023-03-29T06:27:07.563Z,13.72
2023-03-29T06:29:35.219Z,13.78
2023-03-29T06:32:03.639Z,13.84
2023-03-29T06:34:31.112Z,13.92
2023-03-29T06:36:58.332Z,14.00
2023-03-29T06:39:26.881Z,14.07
2023-03-29T06:41:55.755Z,14.14
2023-03-29T06:44:22.985Z,14.21
2023-03-29T06:46:49.811Z,14.28
2023-03-29T06:49:16.750Z,14.38
2023-03-29T06:51:43.550Z,14.48
2023-03-29T06:54:10.367Z,14.58
2023-03-29T06:56:37.110Z,14.73
2023-03-29T06:59:03.857Z,14.87
2023-03-29T07:01:30.729Z,15.04
2023-03-29T07:03:58.498Z,15.22
2023-03-29T07:06:26.284Z,15.35
2023-03-29T07:08:53.501Z,15.49
2023-03-29T07:11:20.491Z,15.62
2023-03-29T07:13:49.004Z,15.76
2023-03-29T07:16:16.155Z,15.87
2023-03-29T07:18:44.745Z,15.99
2023-03-29T07:21:12.995Z,16.09
2023-03-29T07:23:40.767Z,16.17
2023-03-29T07:26:08.055Z,16.23
2023-03-29T07:28:37.339Z,16.28
2023-03-29T07:31:07.954Z,16.35
2023-03-29T07:33:35.225Z,16.42
2023-03-29T07:36:03.347Z,16.46
2023-03-29T07:38:31.388Z,16.53
2023-03-29T07:40:59.318Z,16.60
2023-03-29T07:43:26.090Z,16.63
2023-03-29T07:45:53.083Z,16.65
2023-03-29T07:48:20.162Z,16.68
2023-03-29T07:50:46.969Z,16.70
2023-03-29T07:53:14.172Z,16.71
2023-03-29T07:55:47.333Z,16.73
2023-03-29T07:58:14.808Z,16.74
2023-03-29T08:00:41.863Z,16.77
2023-03-29T08:03:13.233Z,16.81
2023-03-29T08:05:42.002Z,16.81
2023-03-29T08:08:09.812Z,16.84
2023-03-29T08:10:39.299Z,16.85
2023-03-29T08:13:09.051Z,16.86
2023-03-29T08:15:39.000Z,16.86
2023-03-29T08:18:07.809Z,16.88
2023-03-29T08:20:34.905Z,16.91
2023-03-29T08:23:01.763Z,16.94
2023-03-29T08:25:29.210Z,16.97
2023-03-29T08:27:57.731Z,17.00
2023-03-29T08:30:25.304Z,17.01
2023-03-29T08:32:55.169Z,17.03
2023-03-29T08:35:23.085Z,17.06
2023-03-29T08:37:49.842Z,17.08
2023-03-29T08:40:22.583Z,17.13
2023-03-29T08:43:38.249Z,17.15
2023-03-29T08:46:22.693Z,17.19
2023-03-29T08:49:03.956Z,17.25
2023-03-29T08:51:40.445Z,17.34
2023-03-29T08:54:24.885Z,17.42
2023-03-29T08:56:57.024Z,17.51
2023-03-29T08:59:30.535Z,17.62
2023-03-29T09:02:02.236Z,17.75
2023-03-29T09:04:35.724Z,17.91
2023-03-29T09:07:08.297Z,18.00
2023-03-29T09:09:35.901Z,18.09
2023-03-29T09:12:16.608Z,18.16
2023-03-29T09:15:19.369Z,18.17
2023-03-29T09:18:15.090Z,18.21
2023-03-29T09:21:14.487Z,18.27
2023-03-29T09:24:21.077Z,18.31
2023-03-29T09:27:04.282Z,18.37
2023-03-29T09:30:24.466Z,18.43
2023-03-29T09:32:59.189Z,18.46
2023-03-29T09:35:34.416Z,18.51
2023-03-29T09:38:02.851Z,18.56
2023-03-29T09:40:55.306Z,18.61
2023-03-29T09:43:42.517Z,18.66
2023-03-29T09:46:37.542Z,18.70
2023-03-29T09:49:12.530Z,18.77
2023-03-29T09:51:42.183Z,18.82
2023-03-29T09:54:12.906Z,18.87
2023-03-29T09:56:41.018Z,18.93
2023-03-29T09:59:12.717Z,19.05
2023-03-29T10:01:45.714Z,19.15
2023-03-29T10:04:14.967Z,19.26
2023-03-29T10:06:52.930Z,19.42
2023-03-29T10:09:25.224Z,19.60
2023-03-29T10:11:57.947Z,19.77
2023-03-29T10:14:46.486Z,19.90
2023-03-29T10:17:25.009Z,20.01
2023-03-29T10:20:02.157Z,20.10
2023-03-29T10:22:38.319Z,20.16
2023-03-29T10:25:13.141Z,20.19
2023-03-29T10:27:43.310Z,20.15
2023-03-29T10:30:22.493Z,20.09
2023-03-29T10:32:59.818Z,20.04
2023-03-29T10:35:41.845Z,20.03
2023-03-29T10:38:16.471Z,20.06
2023-03-29T10:40:53.153Z,20.08
2023-03-29T10:43:20.182Z,20.08
2023-03-29T10:45:57.880Z,20.10
2023-03-29T10:48:34.613Z,20.11
2023-03-29T10:51:05.797Z,20.13
2023-03-29T10:53:36.899Z,20.15
2023-03-29T10:56:43.264Z,20.09
2023-03-29T10:59:39.980Z,20.08
2023-03-29T11:02:20.430Z,20.04
2023-03-29T11:05:16.880Z,20.03
2023-03-29T11:08:09.180Z,20.05
2023-03-29T11:10:48.636Z,20.13
2023-03-29T11:13:46.211Z,20.30
2023-03-29T11:16:50.211Z,20.58
2023-03-29T11:19:51.205Z,21.06
2023-03-29T11:22:38.985Z,21.59
2023-03-29T11:25:22.928Z,22.20
2023-03-29T11:28:33.202Z,23.00
2023-03-29T11:31:57.476Z,23.79
2023-03-29T11:34:48.915Z,24.66
2023-03-29T11:37:50.996Z,25.44
2023-03-29T11:41:15.600Z,26.24
2023-03-29T11:43:57.467Z,26.85
2023-03-29T11:46:28.209Z,27.24
2023-03-29T11:49:29.305Z,27.47
2023-03-29T11:52:40.446Z,27.56
2023-03-29T11:55:19.501Z,27.52
2023-03-29T11:58:31.835Z,27.40
2023-03-29T12:01:16.293Z,27.32
2023-03-29T12:04:22.766Z,27.15
2023-03-29T12:07:33.039Z,27.06
2023-03-29T12:10:13.969Z,27.02
2023-03-29T12:13:18.479Z,26.90
2023-03-29T12:16:22.174Z,26.83
2023-03-29T12:18:56.548Z,26.76
2023-03-29T12:21:28.908Z,26.70
2023-03-29T12:23:55.979Z,26.68
2023-03-29T12:26:47.048Z,26.72
2023-03-29T12:29:29.466Z,26.81
2023-03-29T12:32:33.065Z,26.88
2023-03-29T12:35:31.921Z,26.96
2023-03-29T12:38:31.183Z,27.00
2023-03-29T12:41:02.076Z,27.09
2023-03-29T12:43:43.373Z,27.14
2023-03-29T12:49:32.037Z,27.06
2023-03-29T12:52:03.779Z,27.06
2023-03-29T12:54:33.745Z,27.05
2023-03-29T12:57:19.499Z,27.04
2023-03-29T12:59:49.568Z,27.07
2023-03-29T13:02:17.696Z,27.10
2023-03-29T13:04:54.071Z,27.13
2023-03-29T13:07:23.823Z,27.10
2023-03-29T13:09:55.002Z,27.06
2023-03-29T13:12:43.036Z,27.01
2023-03-29T13:15:16.830Z,27.01
2023-03-29T13:18:24.553Z,26.93
2023-03-29T13:20:56.977Z,26.87
2023-03-29T13:23:30.052Z,26.81
2023-03-29T13:26:21.559Z,26.71
2023-03-29T13:29:40.049Z,26.59
2023-03-29T13:32:39.667Z,26.55
2023-03-29T13:35:28.175Z,26.51
2023-03-29T13:38:17.868Z,26.52
2023-03-29T13:41:27.791Z,26.57
2023-03-29T13:43:56.677Z,26.67
2023-03-29T13:46:44.093Z,26.75
2023-03-29T13:49:26.406Z,26.83
2023-03-29T13:52:16.469Z,26.84
2023-03-29T13:54:59.736Z,26.83
2023-03-29T13:57:41.900Z,26.76
2023-03-29T14:00:20.422Z,26.65
2023-03-29T14:03:02.228Z,26.50
2023-03-29T14:05:33.961Z,26.39
2023-03-29T14:08:32.420Z,26.20
2023-03-29T14:11:04.437Z,26.07
2023-03-29T14:13:31.618Z,25.90
2023-03-29T14:16:10.269Z,25.73
2023-03-29T14:18:41.103Z,25.53
2023-03-29T14:21:12.375Z,25.33
2023-03-29T14:23:43.189Z,25.14
2023-03-29T14:26:22.517Z,24.95
2023-03-29T14:28:56.687Z,24.80
2023-03-29T14:31:36.614Z,24.67
2023-03-29T14:34:11.466Z,24.54
2023-03-29T14:36:39.640Z,24.46
2023-03-29T14:39:20.814Z,24.38
2023-03-29T14:41:59.313Z,24.27
2023-03-29T14:44:31.719Z,24.15
2023-03-29T14:47:00.236Z,24.03
2023-03-29T14:49:28.002Z,23.99
2023-03-29T14:51:55.608Z,23.98
2023-03-29T14:54:34.233Z,23.97
2023-03-29T14:57:07.267Z,23.98
2023-03-29T14:59:54.106Z,23.96
2023-03-29T15:02:33.921Z,23.95
2023-03-29T15:05:26.240Z,23.97
2023-03-29T15:07:56.046Z,23.97
2023-03-29T15:10:23.625Z,23.99
2023-03-29T15:12:51.569Z,24.02
2023-03-29T15:15:18.786Z,24.05
2023-03-29T15:17:51.185Z,24.10
2023-03-29T15:20:29.152Z,24.14
2023-03-29T15:23:02.239Z,24.19
2023-03-29T15:25:39.076Z,24.22
2023-03-29T15:28:06.221Z,24.22
2023-03-29T15:30:44.243Z,24.25
2023-03-29T15:33:24.784Z,24.23
2023-03-29T15:35:53.885Z,24.20
2023-03-29T15:38:27.437Z,24.17
2023-03-29T15:41:01.338Z,24.10
2023-03-29T15:43:28.324Z,24.04
2023-03-29T15:45:55.170Z,23.99
2023-03-29T15:48:27.628Z,23.95
2023-03-29T15:50:54.819Z,23.88
2023-03-29T15:53:23.555Z,23.85
2023-03-29T15:55:55.928Z,23.81
2023-03-29T15:58:33.894Z,23.77
2023-03-29T16:01:36.588Z,23.69
2023-03-29T16:04:12.451Z,23.64
2023-03-29T16:06:41.146Z,23.58
2023-03-29T16:09:08.881Z,23.54
2023-03-29T16:11:36.508Z,23.48
2023-03-29T16:14:12.005Z,23.43
2023-03-29T16:16:39.156Z,23.37
2023-03-29T16:19:06.572Z,23.33
2023-03-29T16:21:33.675Z,23.28
2023-03-29T16:24:01.150Z,23.24
2023-03-29T16:26:30.380Z,23.17
2023-03-29T16:28:57.559Z,23.03
2023-03-29T16:31:26.981Z,22.92
2023-03-29T16:33:54.084Z,22.80
2023-03-29T16:36:21.256Z,22.69
2023-03-29T16:38:48.047Z,22.63
2023-03-29T16:41:16.799Z,22.56
2023-03-29T16:43:45.140Z,22.50
2023-03-29T16:46:12.838Z,22.43
2023-03-29T16:48:40.770Z,22.38
2023-03-29T16:51:08.426Z,22.32
2023-03-29T16:53:36.105Z,22.24
2023-03-29T16:56:04.963Z,22.14
2023-03-29T16:58:35.708Z,22.04
2023-03-29T17:01:16.122Z,21.94
2023-03-29T17:03:44.421Z,21.87
2023-03-29T17:06:12.742Z,21.78
2023-03-29T17:08:41.739Z,21.71
2023-03-29T17:11:09.820Z,21.64
2023-03-29T17:13:38.178Z,21.57
2023-03-29T17:16:06.805Z,21.53
2023-03-29T17:18:34.318Z,21.48
2023-03-29T17:21:02.318Z,21.44
2023-03-29T17:23:29.820Z,21.38
2023-03-29T17:25:57.393Z,21.33
2023-03-29T17:28:24.911Z,21.28
2023-03-29T17:30:52.287Z,21.20
2023-03-29T17:33:22.798Z,21.11
2023-03-29T17:35:50.574Z,21.03
2023-03-29T17:38:17.918Z,20.92
2023-03-29T17:40:52.026Z,20.84
2023-03-29T17:43:19.504Z,20.76
2023-03-29T17:45:50.980Z,20.71
2023-03-29T17:48:19.584Z,20.62
2023-03-29T17:50:47.435Z,20.54
2023-03-29T17:53:14.708Z,20.46
2023-03-29T17:55:42.360Z,20.36
2023-03-29T17:58:09.674Z,20.26
2023-03-29T18:00:37.606Z,20.17
2023-03-29T18:03:05.335Z,20.11
2023-03-29T18:05:33.813Z,20.03
2023-03-29T18:08:01.735Z,19.95
2023-03-29T18:10:30.068Z,19.89
2023-03-29T18:12:57.681Z,19.83
2023-03-29T18:15:25.317Z,19.76
2023-03-29T18:17:53.264Z,19.70
2023-03-29T18:20:21.252Z,19.75
2023-03-29T18:22:50.571Z,19.64
2023-03-29T18:25:18.472Z,19.53
2023-03-29T18:27:46.272Z,19.44
2023-03-29T18:30:13.962Z,19.37
2023-03-29T18:32:41.524Z,19.31
2023-03-29T18:35:10.000Z,19.28
2023-03-29T18:37:37.098Z,19.24
2023-03-29T18:40:08.012Z,19.20
2023-03-29T18:42:34.869Z,19.16
2023-03-29T18:45:01.779Z,19.12
2023-03-29T18:47:29.037Z,19.10
2023-03-29T18:49:56.013Z,19.06
2023-03-29T18:52:23.281Z,19.02
2023-03-29T18:54:50.376Z,19.01
2023-03-29T18:57:17.117Z,18.97
2023-03-29T18:59:43.844Z,18.93
2023-03-29T19:02:10.893Z,18.91
2023-03-29T19:04:37.830Z,18.90
2023-03-29T19:07:04.746Z,18.86
2023-03-29T19:09:31.564Z,18.83
2023-03-29T19:11:58.424Z,18.81
2023-03-29T19:14:25.500Z,18.78
2023-03-29T19:16:53.156Z,18.75
2023-03-29T19:19:23.722Z,18.74
2023-03-29T19:21:50.741Z,18.69
2023-03-29T19:24:17.740Z,18.67
2023-03-29T19:26:45.386Z,18.66
2023-03-29T19:29:12.429Z,18.63
2023-03-29T19:31:39.208Z,18.61
2023-03-29T19:34:09.379Z,18.59
2023-03-29T19:36:36.672Z,18.60
2023-03-29T19:39:05.069Z,18.60
2023-03-29T19:41:31.844Z,18.60
2023-03-29T19:43:58.577Z,18.57
2023-03-29T19:46:25.675Z,18.58
2023-03-29T19:48:55.480Z,18.57
2023-03-29T19:51:23.499Z,18.56
2023-03-29T19:53:50.536Z,18.55
2023-03-29T19:56:17.805Z,18.53
2023-03-29T19:58:44.613Z,18.53
2023-03-29T20:01:11.384Z,18.51
2023-03-29T20:03:38.719Z,18.50
2023-03-29T20:06:08.015Z,18.51
2023-03-29T20:08:38.532Z,18.50
2023-03-29T20:11:09.923Z,18.50
2023-03-29T20:13:41.365Z,18.49
2023-03-29T20:16:12.668Z,18.49
2023-03-29T20:18:39.780Z,18.49
2023-03-29T20:21:09.263Z,18.50
2023-03-29T20:23:36.632Z,18.50
2023-03-29T20:26:03.604Z,18.50
2023-03-29T20:28:30.413Z,18.50
2023-03-29T20:30:57.166Z,18.51
2023-03-29T20:33:23.938Z,18.52
2023-03-29T20:35:50.830Z,18.51
2023-03-29T20:38:17.654Z,18.52
2023-03-29T20:40:44.893Z,18.54
2023-03-29T20:43:13.347Z,18.54
2023-03-29T20:45:52.564Z,18.56
2023-03-29T20:48:24.697Z,18.53
2023-03-29T20:50:51.905Z,18.53
2023-03-29T20:53:20.445Z,18.54
2023-03-29T20:55:47.737Z,18.51
2023-03-29T20:58:15.612Z,18.53
2023-03-29T21:00:42.762Z,18.51
2023-03-29T21:03:09.929Z,18.51
2023-03-29T21:05:36.944Z,18.52
2023-03-29T21:08:04.307Z,18.51
2023-03-29T21:10:31.366Z,18.52
2023-03-29T21:13:02.357Z,18.53
2023-03-29T21:15:31.097Z,18.53
2023-03-29T21:17:58.356Z,18.54
2023-03-29T21:20:25.563Z,18.54
2023-03-29T21:22:52.309Z,18.53
2023-03-29T21:25:19.455Z,18.53
2023-03-29T21:27:46.433Z,18.55
2023-03-29T21:30:13.677Z,18.54
2023-03-29T21:32:40.982Z,18.54
2023-03-29T21:35:09.013Z,18.55
2023-03-29T21:37:36.002Z,18.56
2023-03-29T21:40:05.798Z,18.56
2023-03-29T21:42:33.692Z,18.57
2023-03-29T21:45:00.882Z,18.55
2023-03-29T21:47:28.063Z,18.55
2023-03-29T21:49:54.845Z,18.55
2023-03-29T21:52:22.337Z,18.55
2023-03-29T21:54:49.210Z,18.56
2023-03-29T21:57:16.183Z,18.57
2023-03-29T21:59:43.176Z,18.58
2023-03-29T22:02:10.279Z,18.58
2023-03-29T22:04:37.814Z,18.61
2023-03-29T22:07:06.296Z,18.61
2023-03-29T22:09:37.617Z,18.62
2023-03-29T22:12:04.747Z,18.63
2023-03-29T22:14:35.176Z,18.64
2023-03-29T22:17:07.750Z,18.65
2023-03-29T22:19:39.130Z,18.65
2023-03-29T22:22:07.133Z,18.66
2023-03-29T22:24:33.917Z,18.65
2023-03-29T22:27:00.700Z,18.64
2023-03-29T22:29:27.412Z,18.65
2023-03-29T22:31:54.237Z,18.63
2023-03-29T22:34:21.173Z,18.63
2023-03-29T22:36:47.921Z,18.62
2023-03-29T22:39:14.620Z,18.61
2023-03-29T22:41:41.959Z,18.59
2023-03-29T22:44:09.276Z,18.58
2023-03-29T22:46:36.145Z,18.56
2023-03-29T22:49:03.830Z,18.55
2023-03-29T22:51:30.579Z,18.56
2023-03-29T22:53:57.403Z,18.56
2023-03-29T22:56:24.707Z,18.56
2023-03-29T22:58:51.621Z,18.57
2023-03-29T23:01:18.356Z,18.58
2023-03-29T23:03:45.143Z,18.59
2023-03-29T23:06:12.042Z,18.60
2023-03-29T23:08:38.900Z,18.61
2023-03-29T23:11:07.324Z,18.63
2023-03-29T23:13:35.449Z,18.65
2023-03-29T23:16:03.689Z,18.69
2023-03-29T23:18:34.503Z,18.70
2023-03-29T23:21:02.463Z,18.73
2023-03-29T23:23:29.456Z,18.76
2023-03-29T23:25:56.440Z,18.78
2023-03-29T23:28:34.310Z,18.84
2023-03-29T23:31:11.328Z,18.87
2023-03-29T23:33:41.211Z,18.88
2023-03-29T23:36:14.962Z,18.88
2023-03-29T23:38:44.792Z,18.91
2023-03-29T23:41:13.040Z,18.91
2023-03-29T23:43:43.216Z,18.92
2023-03-29T23:46:15.108Z,18.90
2023-03-29T23:48:50.705Z,18.90
2023-03-29T23:51:22.923Z,18.89
2023-03-29T23:53:50.199Z,18.89
2023-03-29T23:56:17.009Z,18.88
2023-03-29T23:58:44.460Z,18.88
